createdAt,value
2018-07-11T00:01:42.555Z,29.80
2018-07-11T00:04:10.959Z,20.87
2018-07-11T00:06:39.333Z,14.77
2018-07-11T00:09:07.725Z,23.13
2018-07-11T00:11:36.123Z,28.40
2018-07-11T00:14:04.527Z,31.50
2018-07-11T00:16:32.964Z,22.60
2018-07-11T00:19:01.364Z,24.50
2018-07-11T00:21:29.738Z,34.20
2018-07-11T00:23:58.158Z,29.23
2018-07-11T00:26:26.538Z,21.90
2018-07-11T00:28:54.921Z,31.40
2018-07-11T00:31:23.326Z,32.47
2018-07-11T00:33:51.706Z,25.90
2018-07-11T00:36:20.114Z,28.93
2018-07-11T00:38:48.486Z,32.47
2018-07-11T00:41:16.893Z,22.97
2018-07-11T00:43:45.275Z,30.63
2018-07-11T00:46:16.046Z,29.57
2018-07-11T00:48:44.442Z,33.23
2018-07-11T00:51:12.841Z,50.03
2018-07-11T00:53:41.234Z,30.13
2018-07-11T00:56:09.635Z,28.60
2018-07-11T00:58:40.498Z,28.43
2018-07-11T01:01:15.299Z,29.03
2018-07-11T01:03:53.065Z,27.93
2018-07-11T01:06:21.513Z,32.03
2018-07-11T01:08:53.282Z,26.30
2018-07-11T01:11:22.900Z,31.00
2018-07-11T01:13:51.577Z,24.60
2018-07-11T01:16:20.870Z,28.13
2018-07-11T01:19:09.357Z,28.83
2018-07-11T01:21:38.169Z,31.53
2018-07-11T01:24:06.584Z,17.73
2018-07-11T01:26:36.979Z,16.47
2018-07-11T01:29:05.747Z,19.27
2018-07-11T01:31:34.149Z,17.63
2018-07-11T01:34:02.562Z,19.43
2018-07-11T01:36:31.419Z,13.63
2018-07-11T01:39:00.690Z,18.63
2018-07-11T01:41:29.146Z,17.83
2018-07-11T01:43:57.538Z,22.17
2018-07-11T01:46:30.086Z,21.50
2018-07-11T01:48:58.458Z,22.23
2018-07-11T01:51:38.281Z,20.37
2018-07-11T01:54:06.663Z,23.97
2018-07-11T01:56:35.062Z,19.17
2018-07-11T01:59:03.441Z,21.33
2018-07-11T02:01:31.845Z,16.17
2018-07-11T02:04:00.231Z,17.17
2018-07-11T02:06:28.634Z,15.17
2018-07-11T02:08:57.009Z,18.93
2018-07-11T02:11:25.426Z,20.23
2018-07-11T02:13:53.826Z,19.23
2018-07-11T02:16:22.226Z,14.00
2018-07-11T02:18:50.616Z,14.50
2018-07-11T02:21:19.026Z,18.57
2018-07-11T02:23:47.419Z,11.90
2018-07-11T02:26:15.827Z,15.40
2018-07-11T02:28:44.214Z,15.20
2018-07-11T02:31:12.621Z,13.17
2018-07-11T02:33:41.003Z,13.63
2018-07-11T02:36:09.412Z,11.80
2018-07-11T02:38:37.791Z,14.53
2018-07-11T02:41:06.189Z,18.80
2018-07-11T02:43:34.567Z,18.10
2018-07-11T02:46:02.979Z,21.80
2018-07-11T02:48:31.364Z,16.20
2018-07-11T02:50:59.775Z,14.13
2018-07-11T02:53:28.166Z,20.43
2018-07-11T02:55:56.579Z,23.87
2018-07-11T02:58:24.957Z,26.13
2018-07-11T03:00:53.359Z,18.03
2018-07-11T03:03:21.744Z,29.23
2018-07-11T03:05:50.171Z,21.33
2018-07-11T03:08:18.940Z,22.57
2018-07-11T03:10:47.647Z,16.47
2018-07-11T03:13:19.863Z,16.17
2018-07-11T03:15:48.297Z,20.90
2018-07-11T03:18:16.678Z,20.50
2018-07-11T03:20:45.049Z,20.40
2018-07-11T03:23:13.446Z,23.63
2018-07-11T03:25:41.840Z,17.70
2018-07-11T03:28:10.249Z,12.43
2018-07-11T03:30:38.618Z,17.30
2018-07-11T03:33:07.399Z,15.73
2018-07-11T03:35:35.775Z,17.50
2018-07-11T03:38:04.178Z,22.13
2018-07-11T03:40:32.558Z,22.20
2018-07-11T03:43:00.963Z,16.20
2018-07-11T03:45:29.347Z,20.83
2018-07-11T03:47:57.751Z,19.53
2018-07-11T03:50:26.117Z,24.57
2018-07-11T03:52:54.513Z,20.03
2018-07-11T03:55:22.891Z,17.83
2018-07-11T03:57:51.295Z,32.07
2018-07-11T04:00:19.797Z,19.70
2018-07-11T04:02:48.181Z,16.33
2018-07-11T04:05:16.570Z,24.70
2018-07-11T04:07:44.977Z,12.40
2018-07-11T04:10:13.373Z,17.07
2018-07-11T04:12:41.772Z,10.70
2018-07-11T04:15:10.146Z,14.40
2018-07-11T04:17:38.538Z,12.40
2018-07-11T04:20:07.074Z,17.60
2018-07-11T04:22:35.479Z,16.50
2018-07-11T04:25:03.860Z,11.00
2018-07-11T04:27:32.262Z,11.17
2018-07-11T04:30:00.719Z,11.83
2018-07-11T04:32:29.193Z,14.77
2018-07-11T04:34:57.565Z,14.10
2018-07-11T04:37:25.964Z,12.37
2018-07-11T04:39:54.339Z,10.93
2018-07-11T04:42:22.773Z,11.30
2018-07-11T04:44:51.135Z,14.07
2018-07-11T04:47:19.543Z,9.83
2018-07-11T04:49:47.913Z,7.33
2018-07-11T04:52:16.303Z,16.33
2018-07-11T04:54:44.683Z,9.67
2018-07-11T04:57:13.091Z,10.30
2018-07-11T04:59:41.527Z,8.90
2018-07-11T05:02:09.918Z,7.80
2018-07-11T05:04:38.314Z,8.90
2018-07-11T05:07:06.727Z,8.17
2018-07-11T05:09:35.149Z,11.10
2018-07-11T05:12:03.547Z,7.93
2018-07-11T05:14:31.923Z,11.00
2018-07-11T05:17:00.315Z,8.23
2018-07-11T05:19:28.699Z,9.63
2018-07-11T05:21:57.067Z,9.10
2018-07-11T05:24:25.463Z,7.17
2018-07-11T05:26:53.836Z,9.30
2018-07-11T05:29:22.240Z,9.27
2018-07-11T05:31:50.751Z,8.07
2018-07-11T05:34:19.146Z,7.77
2018-07-11T05:36:47.509Z,8.80
2018-07-11T05:39:15.897Z,7.10
2018-07-11T05:41:44.266Z,13.43
2018-07-11T05:44:12.663Z,8.83
2018-07-11T05:46:41.061Z,7.80
2018-07-11T05:49:09.508Z,8.60
2018-07-11T05:51:37.887Z,9.83
2018-07-11T05:54:06.283Z,7.63
2018-07-11T05:56:34.748Z,10.03
2018-07-11T05:59:03.139Z,16.10
2018-07-11T06:01:31.527Z,10.73
2018-07-11T06:03:59.933Z,10.63
2018-07-11T06:06:28.314Z,10.10
2018-07-11T06:08:56.707Z,8.03
2018-07-11T06:11:25.755Z,8.23
2018-07-11T06:13:54.670Z,7.80
2018-07-11T06:16:23.693Z,8.20
2018-07-11T06:18:52.051Z,15.53
2018-07-11T06:21:23.016Z,8.43
2018-07-11T06:23:51.420Z,10.63
2018-07-11T06:26:19.795Z,8.70
2018-07-11T06:28:48.192Z,8.83
2018-07-11T06:31:16.579Z,11.70
2018-07-11T06:33:45.026Z,11.90
2018-07-11T06:36:13.374Z,9.37
2018-07-11T06:38:41.771Z,9.10
2018-07-11T06:41:10.162Z,8.90
2018-07-11T06:43:38.550Z,13.50
2018-07-11T06:46:07.027Z,11.77
2018-07-11T06:48:35.422Z,9.43
2018-07-11T06:51:03.822Z,8.50
2018-07-11T06:53:32.228Z,8.43
2018-07-11T06:56:00.646Z,8.77
2018-07-11T06:58:29.055Z,15.10
2018-07-11T07:00:57.482Z,9.20
2018-07-11T07:03:25.878Z,10.70
2018-07-11T07:05:54.275Z,11.93
2018-07-11T07:08:22.666Z,10.53
2018-07-11T07:10:51.061Z,9.93
2018-07-11T07:13:19.506Z,24.27
2018-07-11T07:15:47.919Z,9.07
2018-07-11T07:18:16.343Z,13.40
2018-07-11T07:20:44.717Z,10.07
2018-07-11T07:23:13.089Z,16.70
2018-07-11T07:25:41.509Z,10.07
2018-07-11T07:28:09.888Z,10.37
2018-07-11T07:30:38.517Z,10.47
2018-07-11T07:33:06.895Z,9.13
2018-07-11T07:35:35.311Z,8.40
2018-07-11T07:38:03.691Z,15.33
2018-07-11T07:40:32.095Z,11.33
2018-07-11T07:43:00.471Z,9.73
2018-07-11T07:45:28.964Z,14.17
2018-07-11T07:47:58.978Z,9.93
2018-07-11T07:50:27.380Z,9.73
2018-07-11T07:52:55.892Z,10.53
2018-07-11T07:55:24.222Z,8.20
2018-07-11T07:57:52.602Z,13.27
2018-07-11T08:00:21.030Z,8.67
2018-07-11T08:02:49.498Z,9.57
2018-07-11T08:05:17.886Z,7.67
2018-07-11T08:07:46.258Z,6.60
2018-07-11T08:10:14.675Z,8.93
2018-07-11T08:12:43.104Z,6.90
2018-07-11T08:15:11.474Z,15.77
2018-07-11T08:17:39.870Z,12.73
2018-07-11T08:20:08.298Z,13.60
2018-07-11T08:23:17.790Z,6.57
2018-07-11T08:25:58.678Z,8.80
2018-07-11T08:29:38.181Z,7.43
2018-07-11T08:34:24.003Z,8.37
2018-07-11T08:37:08.482Z,8.83
2018-07-11T08:41:03.899Z,7.13
2018-07-11T08:43:52.311Z,6.50
2018-07-11T08:47:04.667Z,6.40
2018-07-11T08:49:44.438Z,6.67
2018-07-11T08:52:31.858Z,7.10
2018-07-11T08:55:09.819Z,7.60
2018-07-11T08:58:47.502Z,6.90
2018-07-11T09:02:32.783Z,7.00
2018-07-11T09:07:17.917Z,8.00
2018-07-11T09:10:15.626Z,7.67
2018-07-11T09:13:55.530Z,8.93
2018-07-11T09:17:18.694Z,7.73
2018-07-11T09:21:03.230Z,17.97
2018-07-11T09:24:52.230Z,7.20
2018-07-11T09:27:20.631Z,8.63
2018-07-11T09:29:49.469Z,7.87
2018-07-11T09:32:17.893Z,6.67
2018-07-11T09:34:46.638Z,7.40
2018-07-11T09:37:15.034Z,9.03
2018-07-11T09:39:43.915Z,10.70
2018-07-11T09:42:12.305Z,7.70
2018-07-11T09:44:40.869Z,11.77
2018-07-11T09:47:29.349Z,7.80
2018-07-11T09:49:58.015Z,6.73
2018-07-11T09:52:26.425Z,9.97
2018-07-11T09:54:54.809Z,8.03
2018-07-11T09:57:24.241Z,14.07
2018-07-11T09:59:52.658Z,7.30
2018-07-11T10:02:21.064Z,9.00
2018-07-11T10:04:49.445Z,8.53
2018-07-11T10:07:17.814Z,7.27
2018-07-11T10:09:46.239Z,10.10
2018-07-11T10:12:14.618Z,8.00
2018-07-11T10:14:43.121Z,8.77
2018-07-11T10:17:11.495Z,10.80
2018-07-11T10:19:39.899Z,9.00
2018-07-11T10:22:08.291Z,12.87
2018-07-11T10:24:36.682Z,9.50
2018-07-11T10:27:05.107Z,17.30
2018-07-11T10:29:33.530Z,11.47
2018-07-11T10:32:01.906Z,8.07
2018-07-11T10:34:30.298Z,8.63
2018-07-11T10:36:58.662Z,9.40
2018-07-11T10:39:27.059Z,8.70
2018-07-11T10:41:55.440Z,10.70
2018-07-11T10:44:23.835Z,9.90
2018-07-11T10:46:56.583Z,9.40
2018-07-11T10:49:25.010Z,10.50
2018-07-11T10:51:54.177Z,9.77
2018-07-11T10:54:22.572Z,10.70
2018-07-11T10:56:50.967Z,8.97
2018-07-11T10:59:19.359Z,7.90
2018-07-11T11:01:47.739Z,9.53
2018-07-11T11:04:19.477Z,8.13
2018-07-11T11:06:47.853Z,8.83
2018-07-11T11:09:16.251Z,12.33
2018-07-11T11:11:44.662Z,9.40
2018-07-11T11:14:13.062Z,13.70
2018-07-11T11:16:41.451Z,9.07
2018-07-11T11:19:09.841Z,10.20
2018-07-11T11:21:38.236Z,9.20
2018-07-11T11:24:07.049Z,9.93
2018-07-11T11:26:35.417Z,11.50
2018-07-11T11:29:03.818Z,10.50
2018-07-11T11:31:32.193Z,10.03
2018-07-11T11:34:00.623Z,11.00
2018-07-11T11:36:28.989Z,9.40
2018-07-11T11:38:57.386Z,12.07
2018-07-11T11:41:25.776Z,10.27
2018-07-11T11:43:54.189Z,9.67
2018-07-11T11:46:22.562Z,9.10
2018-07-11T11:48:50.953Z,11.00
2018-07-11T11:51:19.346Z,8.40
2018-07-11T11:53:47.713Z,9.53
2018-07-11T11:56:16.099Z,8.97
2018-07-11T11:58:44.470Z,9.13
2018-07-11T12:01:12.857Z,12.30
2018-07-11T12:03:41.225Z,8.10
2018-07-11T12:06:09.661Z,8.37
2018-07-11T12:08:38.035Z,8.20
2018-07-11T12:11:06.541Z,7.63
2018-07-11T12:13:34.926Z,8.20
2018-07-11T12:16:05.132Z,8.30
2018-07-11T12:18:33.501Z,9.57
2018-07-11T12:21:01.982Z,7.90
2018-07-11T12:23:30.322Z,8.20
2018-07-11T12:26:04.770Z,8.13
2018-07-11T12:28:33.147Z,8.80
2018-07-11T12:31:01.695Z,7.60
2018-07-11T12:33:30.348Z,8.87
2018-07-11T12:35:58.786Z,8.50
2018-07-11T12:38:27.363Z,9.53
2018-07-11T12:40:56.382Z,9.50
2018-07-11T12:43:25.477Z,9.20
2018-07-11T12:45:53.866Z,9.33
2018-07-11T12:48:27.599Z,15.30
2018-07-11T12:50:56.342Z,9.37
2018-07-11T12:53:24.721Z,11.70
2018-07-11T12:55:53.129Z,17.43
2018-07-11T12:58:21.535Z,9.43
2018-07-11T13:00:50.473Z,11.20
2018-07-11T13:03:19.242Z,15.13
2018-07-11T13:05:47.634Z,10.27
2018-07-11T13:08:18.250Z,9.33
2018-07-11T13:10:46.674Z,21.57
2018-07-11T13:13:15.068Z,10.57
2018-07-11T13:15:43.462Z,10.10
2018-07-11T13:18:11.856Z,12.93
2018-07-11T13:20:40.262Z,13.33
2018-07-11T13:23:08.641Z,22.60
2018-07-11T13:25:37.091Z,13.00
2018-07-11T13:28:05.463Z,15.70
2018-07-11T13:30:33.861Z,11.40
2018-07-11T13:33:02.242Z,11.03
2018-07-11T13:35:30.774Z,12.30
2018-07-11T13:37:59.158Z,19.73
2018-07-11T13:40:27.558Z,16.23
2018-07-11T13:42:55.933Z,11.67
2018-07-11T13:45:24.367Z,14.30
2018-07-11T13:47:58.259Z,14.00
2018-07-11T13:50:26.670Z,19.33
2018-07-11T13:52:55.331Z,13.07
2018-07-11T13:55:23.741Z,13.57
2018-07-11T13:57:52.130Z,13.03
2018-07-11T14:00:20.676Z,13.77
2018-07-11T14:02:49.770Z,12.90
2018-07-11T14:05:18.151Z,18.50
2018-07-11T14:07:46.562Z,16.00
2018-07-11T14:10:14.973Z,14.53
2018-07-11T14:12:43.444Z,14.40
2018-07-11T14:15:11.830Z,16.63
2018-07-11T14:17:40.719Z,20.90
2018-07-11T14:20:09.700Z,18.10
2018-07-11T14:22:38.870Z,16.43
2018-07-11T14:25:07.331Z,15.13
2018-07-11T14:27:42.717Z,13.33
2018-07-11T14:30:11.567Z,14.20
2018-07-11T14:32:45.545Z,11.50
2018-07-11T14:35:14.567Z,12.17
2018-07-11T14:37:42.982Z,12.07
2018-07-11T14:40:11.525Z,13.60
2018-07-11T14:42:40.187Z,12.70
2018-07-11T14:45:08.605Z,14.23
2018-07-11T14:47:42.253Z,12.60
2018-07-11T14:50:10.632Z,18.43
2018-07-11T14:52:39.134Z,14.33
2018-07-11T14:55:07.509Z,13.63
2018-07-11T14:57:36.147Z,23.87
2018-07-11T15:00:04.738Z,16.73
2018-07-11T15:02:33.142Z,14.90
2018-07-11T15:05:01.546Z,14.53
2018-07-11T15:07:29.977Z,11.03
2018-07-11T15:09:58.381Z,12.30
2018-07-11T15:12:26.786Z,12.93
2018-07-11T15:14:55.158Z,9.70
2018-07-11T15:17:23.789Z,9.63
2018-07-11T15:19:52.353Z,9.20
2018-07-11T15:22:20.751Z,9.77
2018-07-11T15:24:49.705Z,8.97
2018-07-11T15:27:18.121Z,9.03
2018-07-11T15:29:46.501Z,11.13
2018-07-11T15:32:14.908Z,8.10
2018-07-11T15:34:43.559Z,13.37
2018-07-11T15:37:12.166Z,11.90
2018-07-11T15:39:40.954Z,7.27
2018-07-11T15:42:09.566Z,7.30
2018-07-11T15:44:37.949Z,11.60
2018-07-11T15:47:06.699Z,5.77
2018-07-11T15:49:35.087Z,6.03
2018-07-11T15:52:03.506Z,5.90
2018-07-11T15:54:33.706Z,4.60
2018-07-11T15:57:03.047Z,5.37
2018-07-11T15:59:33.606Z,7.93
2018-07-11T16:02:01.996Z,4.30
2018-07-11T16:04:36.798Z,7.13
2018-07-11T16:07:07.504Z,4.90
2018-07-11T16:09:47.447Z,6.83
2018-07-11T16:12:15.950Z,6.23
2018-07-11T16:14:45.371Z,5.90
2018-07-11T16:17:13.811Z,6.93
2018-07-11T16:19:42.201Z,7.03
2018-07-11T16:22:10.618Z,6.73
2018-07-11T16:24:39.010Z,6.50
2018-07-11T16:27:07.385Z,6.27
2018-07-11T16:29:35.773Z,5.63
2018-07-11T16:32:04.143Z,8.10
2018-07-11T16:34:32.647Z,7.57
2018-07-11T16:37:01.018Z,5.93
2018-07-11T16:39:29.410Z,6.30
2018-07-11T16:41:57.787Z,13.23
2018-07-11T16:44:26.187Z,8.03
2018-07-11T16:46:54.554Z,4.40
2018-07-11T16:49:22.954Z,4.47
2018-07-11T16:51:51.334Z,4.97
2018-07-11T16:54:20.632Z,4.97
2018-07-11T16:56:49.015Z,4.70
2018-07-11T16:59:17.617Z,4.80
2018-07-11T17:01:53.169Z,5.13
2018-07-11T17:04:23.713Z,9.17
2018-07-11T17:06:52.633Z,4.93
2018-07-11T17:09:21.043Z,5.53
2018-07-11T17:11:51.594Z,5.50
2018-07-11T17:14:22.159Z,5.73
2018-07-11T17:16:59.867Z,5.33
2018-07-11T17:19:43.081Z,6.93
2018-07-11T17:22:11.467Z,5.50
2018-07-11T17:24:43.719Z,4.73
2018-07-11T17:27:13.578Z,5.77
2018-07-11T17:29:42.131Z,5.20
2018-07-11T17:32:11.770Z,5.13
2018-07-11T17:34:40.939Z,4.97
2018-07-11T17:37:11.294Z,4.70
2018-07-11T17:39:48.569Z,4.83
2018-07-11T17:42:17.482Z,5.07
2018-07-11T17:44:49.506Z,5.00
2018-07-11T17:47:19.258Z,4.03
2018-07-11T17:49:54.323Z,3.90
2018-07-11T17:52:25.125Z,4.80
2018-07-11T17:55:13.504Z,4.40
2018-07-11T17:58:00.210Z,5.20
2018-07-11T18:01:04.977Z,4.53
2018-07-11T18:04:42.274Z,3.53
2018-07-11T18:07:14.821Z,8.63
2018-07-11T18:09:56.240Z,4.17
2018-07-11T18:12:27.254Z,4.97
2018-07-11T18:17:07.102Z,7.30
2018-07-11T18:20:16.710Z,8.53
2018-07-11T18:23:23.553Z,5.33
2018-07-11T18:26:26.772Z,13.23
2018-07-11T18:29:09.458Z,6.13
2018-07-11T18:32:50.771Z,5.90
2018-07-11T18:35:30.817Z,7.00
2018-07-11T18:38:23.977Z,5.77
2018-07-11T18:42:07.289Z,6.33
2018-07-11T18:44:50.364Z,5.87
2018-07-11T18:47:59.172Z,14.83
2018-07-11T18:50:35.538Z,5.57
2018-07-11T18:53:13.283Z,6.43
2018-07-11T18:56:26.251Z,7.63
2018-07-11T18:59:09.287Z,13.73
2018-07-11T19:01:48.555Z,14.77
2018-07-11T19:04:34.831Z,7.63
2018-07-11T19:07:12.477Z,5.57
2018-07-11T19:09:50.585Z,7.80
2018-07-11T19:12:34.049Z,10.90
2018-07-11T19:15:07.447Z,8.13
2018-07-11T19:19:51.511Z,13.37
2018-07-11T19:22:45.667Z,18.10
2018-07-11T19:25:34.227Z,19.93
2018-07-11T19:28:13.655Z,21.63
2018-07-11T19:30:55.657Z,24.17
2018-07-11T19:33:35.526Z,25.67
2018-07-11T19:36:14.721Z,39.80
2018-07-11T19:38:52.330Z,39.83
2018-07-11T19:41:26.237Z,14.00
2018-07-11T19:44:05.810Z,11.30
2018-07-11T19:46:42.866Z,12.13
2018-07-11T19:49:24.932Z,21.03
2018-07-11T19:52:00.311Z,14.00
2018-07-11T19:54:35.882Z,11.47
2018-07-11T19:57:04.304Z,8.10
2018-07-11T19:59:32.724Z,8.47
2018-07-11T20:02:01.246Z,11.50
2018-07-11T20:04:29.641Z,12.53
2018-07-11T20:06:58.087Z,7.57
2018-07-11T20:09:26.461Z,15.43
2018-07-11T20:11:54.890Z,7.50
2018-07-11T20:14:23.289Z,9.17
2018-07-11T20:16:51.911Z,10.70
2018-07-11T20:19:20.316Z,8.77
2018-07-11T20:21:48.720Z,8.33
2018-07-11T20:24:17.139Z,6.73
2018-07-11T20:26:45.559Z,14.57
2018-07-11T20:29:13.954Z,10.90
2018-07-11T20:31:42.355Z,11.77
2018-07-11T20:34:10.730Z,11.13
2018-07-11T20:36:39.126Z,10.43
2018-07-11T20:39:07.528Z,9.53
2018-07-11T20:41:35.922Z,11.80
2018-07-11T20:44:04.408Z,9.83
2018-07-11T20:46:33.424Z,15.97
2018-07-11T20:49:06.649Z,10.50
2018-07-11T20:51:35.037Z,12.03
2018-07-11T20:54:03.518Z,8.63
2018-07-11T20:56:31.988Z,13.47
2018-07-11T20:59:11.583Z,8.70
2018-07-11T21:02:50.967Z,13.17
2018-07-11T21:08:09.639Z,10.77
2018-07-11T21:10:47.405Z,10.37
2018-07-11T21:15:30.741Z,11.03
2018-07-11T21:18:16.506Z,11.00
2018-07-11T21:20:44.913Z,10.00
2018-07-11T21:23:13.305Z,10.53
2018-07-11T21:25:41.702Z,10.57
2018-07-11T21:28:10.099Z,9.63
2018-07-11T21:30:38.465Z,11.07
2018-07-11T21:33:06.875Z,19.63
2018-07-11T21:35:35.551Z,12.20
2018-07-11T21:38:03.954Z,9.93
2018-07-11T21:40:32.352Z,19.30
2018-07-11T21:43:00.729Z,15.10
2018-07-11T21:45:29.141Z,19.47
2018-07-11T21:47:57.508Z,9.40
2018-07-11T21:50:25.947Z,15.23
2018-07-11T21:52:54.323Z,10.93
2018-07-11T21:55:22.713Z,13.97
2018-07-11T21:57:51.114Z,14.00
2018-07-11T22:00:30.815Z,13.40
2018-07-11T22:02:59.182Z,16.80
2018-07-11T22:05:28.542Z,14.73
2018-07-11T22:07:57.065Z,16.00
2018-07-11T22:10:25.673Z,21.10
2018-07-11T22:12:54.045Z,12.67
2018-07-11T22:15:22.463Z,13.20
2018-07-11T22:18:02.267Z,14.73
2018-07-11T22:20:31.174Z,16.47
2018-07-11T22:22:58.502Z,19.37
2018-07-11T22:25:25.823Z,28.97
2018-07-11T22:27:53.153Z,20.77
2018-07-11T22:30:20.478Z,20.80
2018-07-11T22:32:47.813Z,16.50
2018-07-11T22:35:15.395Z,17.70
2018-07-11T22:37:42.974Z,22.80
2018-07-11T22:40:10.313Z,23.10
2018-07-11T22:42:38.123Z,16.30
2018-07-11T22:45:05.437Z,22.20
2018-07-11T22:47:33.113Z,26.50
2018-07-11T22:50:02.277Z,35.37
2018-07-11T22:52:31.554Z,20.73
2018-07-11T22:54:58.837Z,18.80
2018-07-11T22:57:26.150Z,20.60
2018-07-11T22:59:53.518Z,26.63
2018-07-11T23:02:20.842Z,19.50
2018-07-11T23:04:48.188Z,17.10
2018-07-11T23:07:15.505Z,20.97
2018-07-11T23:09:42.844Z,16.43
2018-07-11T23:12:10.157Z,21.70
2018-07-11T23:14:39.127Z,23.17
2018-07-11T23:17:06.439Z,27.97
2018-07-11T23:19:33.779Z,20.70
2018-07-11T23:22:01.107Z,28.33
2018-07-11T23:24:28.450Z,17.90
2018-07-11T23:26:55.771Z,21.17
2018-07-11T23:29:23.106Z,23.53
2018-07-11T23:31:50.418Z,22.73
2018-07-11T23:34:17.754Z,14.40
2018-07-11T23:36:45.067Z,26.73
2018-07-11T23:39:12.698Z,19.90
2018-07-11T23:41:40.011Z,17.87
2018-07-11T23:44:07.361Z,14.13
2018-07-11T23:46:34.678Z,19.33
2018-07-11T23:49:02.017Z,20.87
2018-07-11T23:51:29.330Z,24.93
2018-07-11T23:53:56.677Z,17.87
2018-07-11T23:56:23.997Z,19.47
2018-07-11T23:58:51.687Z,28.90
